Walla Walla, WA

9:56 AM PDT on October 23, 2014 (GMT -0700)
Whitman | Change Station
CLOSE
Current Station
Personal Weather Station
Location: Walla Walla, WA
Elevation: 994 ft
Nearby Weather Stations

Elev 994 ft 46.07 °N, 118.33 °W | Updated 9 minutes ago

Overcast
Overcast
57.2 °F
Feels Like 57.2 °F
N
0.0
Wind Variable Wind from East
Gusts 2.0 mph

Today
High -- | Low -- °F
--% Chance of Precip.
Yesterday
High -- | Low -- °F
Precip. -- in
7:21 AM 5:53 PM
Waning Crescent, 0% visible
Pressure 29.78 in
Visibility 10.0 miles
Clouds Overcast 7000 ft
Dew Point 54 °F
Humidity 88%
Rainfall 0.07 in
Snow Depth Not available.
UV 1 out of 12
Pollen .40 out of 12
Air Quality Not available.
Flu Activity Sporadic
METAR KALW 231653Z 00000KT 10SM R20/6000VP6000FT OVC070 15/12 A2979 RMK AO2 SLP084 T01500122

More Conditions Fewer Conditions

Pressure 29.78 in
Visibility 10.0 miles
Clouds Overcast 7000 ft
Dew Point 54 °F
Humidity 88%
Rainfall 0.07 in
Snow Depth Not available.
UV 1 out of 12
Pollen .40 out of 12
Air Quality Not available.
Flu Activity Sporadic
METAR KALW 231653Z 00000KT 10SM R20/6000VP6000FT OVC070 15/12 A2979 RMK AO2 SLP084 T01500122

More Conditions Fewer Conditions

10-Day Weather Forecast

Almanac

Astronomy

Oct. 23, 2014 Rise Set
Actual Time 7:21 AM PDT 5:53 PM PDT
Civil Twilight 6:50 AM PDT 6:23 PM PDT
Nautical Twilight 6:15 AM PDT 6:58 PM PDT
Astronomical Twilight 5:41 AM PDT 7:33 PM PDT
Moon 7:04 AM PDT 5:57 PM PDT
Length of Visible Light 11h 32m
Length of Day
10h 31m
Tomorrow will be 3m 3s shorter.
Waning Crescent, 0% of the Moon is Illuminated
Today
Waning Crescent
Oct 23
New
Oct 30
First Quarter
Nov 6
Full
Nov 14
Last Quarter

Today's Extremes

State Highs State Lows

Community

WunderPhotos

Upload Photos

1,764,308 photos uploaded!

WunderBlogs® & News

Nearby

Snow Depth

Station Depth Elevation
Spruce Springs 0 in 5700 ft
Sourdough Gulch 1 in 4000 ft
Trough 0 in 5300 ft
Grouse Camp 0 in 5380 ft
Lost Horse 0 in 5000 ft

Earthquake Activity

City Distance Mag. Time & Date
No recent earthquake activity has been reported nearby.
Minimum magnitude displayed is 2.5.

Coastal Water Temperatures

Place Temperature
No Stations Reporting

Nearby Weather Stations